Tecate, CA

9:36 PM PDT en Septiembre 02, 2014 (GMT -0700)
POTRERO | Change Station
CLOSE
Current Station
Estación meteorológica personal
Location: Potrero, CA
Altura: 2362 ft
Estaciones meteorológicas cercanas

Alt 2362 ft 32.60 °N, 116.61 °W | Updated 2 minutes ago

Despejado
Despejado
63.0 ° F
Sensación térmica 63.0 ° F
N
1.0
Viento Variable Viento desde SE

Hoy
Alta -- | Baja -- ° F
--% Posibilidad de precipitaciones
Ayer
Alta -- | Baja -- ° F
Precip. -- pul
6:22 AM 7:09 PM
Cuarto creciente, 58% visible
Presión 29.82 pul
Visibilidad 10.0 Millas
Nubes Muy nublado 1000 ft
Punto de rocío 54 ° F
Humedad 72%
Precipitaciones -999.00 pul
Espesor de la nieve No disponible.
UV 0 de una escala de 12
Polen 7.80 de una escala de 12
Ozono Buena
PM2.5 Buena
Flu Activity No disponible.
METAR KSDM 030353Z 28004KT 10SM BKN010 19/17 A2983 RMK AO2 SLP096 T01940172 $

More Conditions Fewer Conditions

Presión 29.82 pul
Visibilidad 10.0 Millas
Nubes Muy nublado 1000 ft
Punto de rocío 54 ° F
Humedad 72%
Precipitaciones -999.00 pul
Espesor de la nieve No disponible.
UV 0 de una escala de 12
Polen 7.80 de una escala de 12
Ozono Buena
PM2.5 Buena
Flu Activity No disponible.
METAR KSDM 030353Z 28004KT 10SM BKN010 19/17 A2983 RMK AO2 SLP096 T01940172 $

More Conditions Fewer Conditions

10-Day Weather Forecast

Almanac

Astronomía

Sep. 02, 2014 Salida Puesta
Hora real 6:22 AM PDT 7:09 PM PDT
Crepúsculo civil 5:57 AM PDT 7:34 PM PDT
Crepúsculo náutico 5:27 AM PDT 8:04 PM PDT
Crepúsculo astronómico 4:57 AM PDT 8:34 PM PDT
Luna 1:47 PM PDT (9/2) Sin puesta de luna
Horas de luz 13h 37m
Horas de luz
12h 47m
Tomorrow will be 1m 56s shorter.
Cuarto creciente, 58% of the Moon is Illuminated
Sep 3
Cuarto creciente
Sep 8
Luna llena
Sep 15
Cuarto menguante
Sep 24
Nueva
Oct 1
Cuarto creciente

Extremos de hoy

Máximos del estado Bajos del estado

Community

WunderPhotos

Upload Photos

1,749,870 ¡fotos cargadas!

Nearby

Calidad del aire

  Calidad del aire Índice AQ Contaminante
Ayer Moderada
OZONE
Ayer Buena
PM2.5
Real Buena
PM2.5
Real Buena
OZONE
Martes Buena
PM2.5
Miércoles Buena
PM2.5
Miércoles Buena
OZONE

Grosos de nieve

Estación Profundido Altura
Leavitt Lake 0 in 9400 ft
Leavitt Meadows 0 in 7200 ft
Summit Meadow 0 in 9122 ft
Monitor Pass 0 in 8350 ft
Blue Lakes 0 in 8000 ft

Actividad de terremotos

Ciudad Distance Mag. Tiempo y dato
San Jacinto, California 85 Millas 2.9 8:30 PM PDT
2014-09-02
San Jacinto, California 85 Millas 3.7 7:38 PM PDT
2014-09-02
Holtville, California 72 Millas 2.5 5:43 PM PDT
2014-09-01
Holtville, California 73 Millas 2.5 5:26 PM PDT
2014-09-01
Magnitud mínima muestra es 2,5.

Temperaturas de aguas costeras

Lugar Temperatura
La Jolla, CA 73.0 ° F
San Diego, CA 75.9 ° F

Estaciones meteorológicas cercanas